Terminal Aerodrome Forecast
Issued by NWS Dallas/Fort Worth, TX

Home | Current Version | Previous Version | Text Only | Print | Product List | Glossary On
Versions: 1 2 3 4 5 6 7 8 9 10 11 12 13 14 15 16 17 18 19 20 21 22 23 24 25 26 27 28 29 30
000
FTUS44 KFWD 210200 AAC
TAFDFW
TAF AMD
KDFW 210219Z 2102/2206 06005KT P6SM -RA SCT030 BKN070 OVC100
      TEMPO 2103/2105 4SM -RA BR BKN030
     FM210600 18010KT P6SM BKN025
     FM210800 19008KT P6SM BKN015
     FM211700 19013KT P6SM SCT030 SCT100 SCT250
     FM212000 17008KT P6SM VCTS BKN050CB
     FM220200 34008KT P6SM SCT050 BKN150=

USA.gov is the U.S. government's official web portal to all federal, state and local government web resources and services.